Terminal Aerodrome Forecast
Issued by NWS

Home | Current Version | Previous Version | Text Only | Print | Product List | Glossary On
Versions: 1 2 3 4 5 6 7 8 9 10 11 12 13 14 15 16 17
000
FTUS41 KBTV 280303 AAA
TAFRUT
TAF AMD
KRUT 280303Z 2803/2824 00000KT 5SM BR VCSH BKN025 OVC035
      TEMPO 2803/2807 3SM -SHSN BR
     FM281000 31006KT P6SM SCT025 BKN050
      AMD LTD TO CLD VIS AND WIND=

USA.gov is the U.S. government's official web portal to all federal, state and local government web resources and services.